sensor_id;sensor_type;location;lat;lon;timestamp;pressure;altitude;pressure_sealevel;temperature;humidity
48200;BME280;33990;44.602;10.976;2023-08-06T00:01:16;100013.44;;;27.25;50.33
48200;BME280;33990;44.602;10.976;2023-08-06T00:03:45;100010.72;;;27.25;50.49
48200;BME280;33990;44.602;10.976;2023-08-06T00:06:13;100008.00;;;27.25;50.29
48200;BME280;33990;44.602;10.976;2023-08-06T00:08:40;100008.00;;;27.25;50.50
48200;BME280;33990;44.602;10.976;2023-08-06T00:11:08;100007.19;;;27.25;50.38
48200;BME280;33990;44.602;10.976;2023-08-06T00:13:35;100009.91;;;27.25;50.25
48200;BME280;33990;44.602;10.976;2023-08-06T00:16:12;100002.56;;;27.25;50.22
48200;BME280;33990;44.602;10.976;2023-08-06T00:18:40;100008.84;;;27.26;49.92
48200;BME280;33990;44.602;10.976;2023-08-06T00:21:08;100002.56;;;27.25;50.27
48200;BME280;33990;44.602;10.976;2023-08-06T00:23:35;100006.13;;;27.26;50.18
48200;BME280;33990;44.602;10.976;2023-08-06T00:26:03;100001.75;;;27.25;50.20
48200;BME280;33990;44.602;10.976;2023-08-06T00:28:30;99990.88;;;27.25;50.05
48200;BME280;33990;44.602;10.976;2023-08-06T00:30:57;99979.16;;;27.24;50.00
48200;BME280;33990;44.602;10.976;2023-08-06T00:33:25;99987.31;;;27.24;50.09
48200;BME280;33990;44.602;10.976;2023-08-06T00:35:52;99981.22;;;27.22;50.13
48200;BME280;33990;44.602;10.976;2023-08-06T00:38:20;99987.31;;;27.24;50.44
48200;BME280;33990;44.602;10.976;2023-08-06T00:40:47;99989.19;;;27.24;50.22
48200;BME280;33990;44.602;10.976;2023-08-06T00:43:16;99978.50;;;27.22;50.27
48200;BME280;33990;44.602;10.976;2023-08-06T00:45:43;99980.41;;;27.22;50.23
48200;BME280;33990;44.602;10.976;2023-08-06T00:48:11;99977.69;;;27.22;50.24
48200;BME280;33990;44.602;10.976;2023-08-06T00:50:38;99982.09;;;27.23;50.40
48200;BME280;33990;44.602;10.976;2023-08-06T00:53:06;99976.66;;;27.23;50.32
48200;BME280;33990;44.602;10.976;2023-08-06T00:55:33;99979.38;;;27.23;50.32
48200;BME280;33990;44.602;10.976;2023-08-06T00:58:02;99974.97;;;27.22;50.04
48200;BME280;33990;44.602;10.976;2023-08-06T01:00:29;99969.53;;;27.22;50.21
48200;BME280;33990;44.602;10.976;2023-08-06T01:02:57;99964.94;;;27.22;50.05
48200;BME280;33990;44.602;10.976;2023-08-06T01:05:24;99968.69;;;27.21;50.35
48200;BME280;33990;44.602;10.976;2023-08-06T01:13:24;99972.25;;;27.22;49.98
48200;BME280;33990;44.602;10.976;2023-08-06T01:15:58;99976.00;;;27.21;50.42
48200;BME280;33990;44.602;10.976;2023-08-06T01:18:26;99974.97;;;27.22;50.06
48200;BME280;33990;44.602;10.976;2023-08-06T01:20:54;99977.91;;;27.20;50.10
48200;BME280;33990;44.602;10.976;2023-08-06T01:23:22;99987.94;;;27.20;50.18
48200;BME280;33990;44.602;10.976;2023-08-06T01:31:02;99963.47;;;27.20;50.26
48200;BME280;33990;44.602;10.976;2023-08-06T01:33:32;99958.03;;;27.20;50.27
48200;BME280;33990;44.602;10.976;2023-08-06T01:36:01;99958.03;;;27.20;50.11
48200;BME280;33990;44.602;10.976;2023-08-06T01:38:31;99964.31;;;27.20;50.30
48200;BME280;33990;44.602;10.976;2023-08-06T01:40:59;99963.47;;;27.20;50.02
48200;BME280;33990;44.602;10.976;2023-08-06T01:43:26;99959.09;;;27.19;50.00
48200;BME280;33990;44.602;10.976;2023-08-06T01:45:53;99953.66;;;27.19;50.21
48200;BME280;33990;44.602;10.976;2023-08-06T01:48:21;99954.50;;;27.19;50.20
48200;BME280;33990;44.602;10.976;2023-08-06T01:50:49;99953.66;;;27.19;49.98
48200;BME280;33990;44.602;10.976;2023-08-06T01:53:17;99947.38;;;27.18;50.22
48200;BME280;33990;44.602;10.976;2023-08-06T01:55:51;99956.38;;;27.19;50.15
48200;BME280;33990;44.602;10.976;2023-08-06T01:58:19;99957.41;;;27.18;50.17
48200;BME280;33990;44.602;10.976;2023-08-06T02:00:46;99949.25;;;27.18;50.02
48200;BME280;33990;44.602;10.976;2023-08-06T02:03:13;99951.13;;;27.17;50.03
48200;BME280;33990;44.602;10.976;2023-08-06T02:05:41;99953.00;;;27.17;50.08
48200;BME280;33990;44.602;10.976;2023-08-06T02:08:08;99948.41;;;27.17;50.29
48200;BME280;33990;44.602;10.976;2023-08-06T02:10:36;99937.53;;;27.17;50.19
48200;BME280;33990;44.602;10.976;2023-08-06T02:13:03;99944.84;;;27.17;50.36
48200;BME280;33990;44.602;10.976;2023-08-06T02:15:30;99933.16;;;27.16;50.29
48200;BME280;33990;44.602;10.976;2023-08-06T02:17:58;99924.19;;;27.16;49.85
48200;BME280;33990;44.602;10.976;2023-08-06T02:20:26;99927.72;;;27.16;50.17
48200;BME280;33990;44.602;10.976;2023-08-06T02:22:54;99930.44;;;27.16;50.13
48200;BME280;33990;44.602;10.976;2023-08-06T02:25:21;99920.63;;;27.15;50.04
48200;BME280;33990;44.602;10.976;2023-08-06T02:27:49;99916.84;;;27.16;50.04
48200;BME280;33990;44.602;10.976;2023-08-06T02:30:16;99920.41;;;27.17;49.84
48200;BME280;33990;44.602;10.976;2023-08-06T02:32:44;99920.63;;;27.15;50.21
48200;BME280;33990;44.602;10.976;2023-08-06T02:35:11;99910.59;;;27.16;49.92
48200;BME280;33990;44.602;10.976;2023-08-06T02:37:39;99911.63;;;27.15;49.88
48200;BME280;33990;44.602;10.976;2023-08-06T02:40:06;99912.47;;;27.15;50.14
48200;BME280;33990;44.602;10.976;2023-08-06T02:42:34;99903.50;;;27.15;49.92
48200;BME280;33990;44.602;10.976;2023-08-06T02:45:02;99912.47;;;27.15;50.01
48200;BME280;33990;44.602;10.976;2023-08-06T02:47:29;99905.16;;;27.16;49.87
48200;BME280;33990;44.602;10.976;2023-08-06T02:49:59;99903.50;;;27.15;50.00
48200;BME280;33990;44.602;10.976;2023-08-06T02:52:26;99911.63;;;27.15;50.12
48200;BME280;33990;44.602;10.976;2023-08-06T02:54:54;99914.34;;;27.15;49.95
48200;BME280;33990;44.602;10.976;2023-08-06T02:57:21;99914.34;;;27.15;49.89
48200;BME280;33990;44.602;10.976;2023-08-06T02:59:51;99908.06;;;27.14;50.16
48200;BME280;33990;44.602;10.976;2023-08-06T03:02:21;99904.50;;;27.14;49.89
48200;BME280;33990;44.602;10.976;2023-08-06T03:05:09;99907.22;;;27.14;50.25
48200;BME280;33990;44.602;10.976;2023-08-06T03:07:41;99899.06;;;27.14;50.08
48200;BME280;33990;44.602;10.976;2023-08-06T03:10:14;99896.34;;;27.14;49.80
48200;BME280;33990;44.602;10.976;2023-08-06T03:12:43;99894.69;;;27.13;50.06
48200;BME280;33990;44.602;10.976;2023-08-06T03:15:11;99887.38;;;27.13;49.87
48200;BME280;33990;44.602;10.976;2023-08-06T03:17:40;99881.94;;;27.13;49.86
48200;BME280;33990;44.602;10.976;2023-08-06T03:20:09;99883.81;;;27.13;49.74
48200;BME280;33990;44.602;10.976;2023-08-06T03:22:37;99887.59;;;27.11;50.12
48200;BME280;33990;44.602;10.976;2023-08-06T03:25:06;99889.25;;;27.13;49.78
48200;BME280;33990;44.602;10.976;2023-08-06T03:27:35;99886.53;;;27.13;50.11
48200;BME280;33990;44.602;10.976;2023-08-06T03:30:02;99870.47;;;27.11;50.10
48200;BME280;33990;44.602;10.976;2023-08-06T03:32:31;99877.56;;;27.12;50.14
48200;BME280;33990;44.602;10.976;2023-08-06T03:34:59;99874.84;;;27.12;50.07
48200;BME280;33990;44.602;10.976;2023-08-06T03:37:29;99883.00;;;27.12;50.00
48200;BME280;33990;44.602;10.976;2023-08-06T03:39:56;99874.00;;;27.11;49.83
48200;BME280;33990;44.602;10.976;2023-08-06T03:42:24;99881.09;;;27.13;50.14
48200;BME280;33990;44.602;10.976;2023-08-06T03:44:51;99884.88;;;27.11;50.10
48200;BME280;33990;44.602;10.976;2023-08-06T03:47:18;99889.47;;;27.11;50.00
48200;BME280;33990;44.602;10.976;2023-08-06T03:49:49;99884.03;;;27.11;50.05
48200;BME280;33990;44.602;10.976;2023-08-06T03:52:17;99887.78;;;27.10;49.99
48200;BME280;33990;44.602;10.976;2023-08-06T03:54:44;99880.50;;;27.10;49.82
48200;BME280;33990;44.602;10.976;2023-08-06T03:57:12;99875.06;;;27.10;50.12
48200;BME280;33990;44.602;10.976;2023-08-06T03:59:40;99877.78;;;27.10;49.97
48200;BME280;33990;44.602;10.976;2023-08-06T04:02:08;99884.19;;;27.09;49.95
48200;BME280;33990;44.602;10.976;2023-08-06T04:04:36;99884.19;;;27.09;50.05
48200;BME280;33990;44.602;10.976;2023-08-06T04:07:03;99884.19;;;27.09;50.09
48200;BME280;33990;44.602;10.976;2023-08-06T04:09:31;99880.66;;;27.09;50.12
48200;BME280;33990;44.602;10.976;2023-08-06T04:11:58;99878.97;;;27.08;50.13
48200;BME280;33990;44.602;10.976;2023-08-06T04:14:30;99881.69;;;27.08;49.82
48200;BME280;33990;44.602;10.976;2023-08-06T04:16:57;99885.25;;;27.08;50.11
48200;BME280;33990;44.602;10.976;2023-08-06T04:19:25;99889.00;;;27.07;50.03
48200;BME280;33990;44.602;10.976;2023-08-06T04:21:52;99890.69;;;27.08;49.98
48200;BME280;33990;44.602;10.976;2023-08-06T04:24:20;99887.97;;;27.08;50.08
48200;BME280;33990;44.602;10.976;2023-08-06T04:26:47;99885.25;;;27.08;49.87
48200;BME280;33990;44.602;10.976;2023-08-06T04:29:15;99875.44;;;27.07;49.97
48200;BME280;33990;44.602;10.976;2023-08-06T04:31:43;99866.22;;;27.08;49.98
48200;BME280;33990;44.602;10.976;2023-08-06T04:34:11;99866.44;;;27.07;49.88
48200;BME280;33990;44.602;10.976;2023-08-06T04:36:39;99873.75;;;27.06;50.02
48200;BME280;33990;44.602;10.976;2023-08-06T04:39:09;99882.75;;;27.07;50.17
48200;BME280;33990;44.602;10.976;2023-08-06T04:41:37;99880.03;;;27.07;50.18
48200;BME280;33990;44.602;10.976;2023-08-06T04:44:05;99871.88;;;27.07;50.11
48200;BME280;33990;44.602;10.976;2023-08-06T04:46:33;99878.16;;;27.07;49.74
48200;BME280;33990;44.602;10.976;2023-08-06T04:49:00;99885.47;;;27.07;49.83
48200;BME280;33990;44.602;10.976;2023-08-06T04:51:27;99890.06;;;27.06;50.05
48200;BME280;33990;44.602;10.976;2023-08-06T04:53:56;99906.97;;;27.08;49.79
48200;BME280;33990;44.602;10.976;2023-08-06T04:56:24;99903.66;;;27.06;49.74
48200;BME280;33990;44.602;10.976;2023-08-06T04:58:51;99906.38;;;27.06;49.81
48200;BME280;33990;44.602;10.976;2023-08-06T05:01:19;99898.22;;;27.06;49.70
48200;BME280;33990;44.602;10.976;2023-08-06T05:03:47;99903.84;;;27.05;50.05
48200;BME280;33990;44.602;10.976;2023-08-06T05:06:14;99899.22;;;27.05;49.68
48200;BME280;33990;44.602;10.976;2023-08-06T05:08:42;99893.81;;;27.05;49.94
48200;BME280;33990;44.602;10.976;2023-08-06T05:11:09;99892.13;;;27.04;49.88
48200;BME280;33990;44.602;10.976;2023-08-06T05:13:37;99890.25;;;27.05;49.87
48200;BME280;33990;44.602;10.976;2023-08-06T05:16:04;99887.53;;;27.05;50.04
48200;BME280;33990;44.602;10.976;2023-08-06T05:18:31;99889.41;;;27.04;49.70
48200;BME280;33990;44.602;10.976;2023-08-06T05:21:01;99893.81;;;27.05;49.67
48200;BME280;33990;44.602;10.976;2023-08-06T05:23:28;99880.44;;;27.04;49.95
48200;BME280;33990;44.602;10.976;2023-08-06T05:25:56;99892.13;;;27.04;49.54
48200;BME280;33990;44.602;10.976;2023-08-06T05:28:23;99879.59;;;27.03;49.67
48200;BME280;33990;44.602;10.976;2023-08-06T05:30:50;99877.72;;;27.04;49.79
48200;BME280;33990;44.602;10.976;2023-08-06T05:33:18;99879.59;;;27.03;49.65
48200;BME280;33990;44.602;10.976;2023-08-06T05:35:45;99880.66;;;27.02;49.74
48200;BME280;33990;44.602;10.976;2023-08-06T05:38:12;99885.03;;;27.03;49.98
48200;BME280;33990;44.602;10.976;2023-08-06T05:40:40;99884.81;;;27.05;49.55
48200;BME280;33990;44.602;10.976;2023-08-06T05:43:07;99882.31;;;27.03;49.76
48200;BME280;33990;44.602;10.976;2023-08-06T05:45:34;99873.34;;;27.03;49.56
48200;BME280;33990;44.602;10.976;2023-08-06T05:48:02;99884.19;;;27.03;49.55
48200;BME280;33990;44.602;10.976;2023-08-06T05:50:29;99882.31;;;27.03;50.03
48200;BME280;33990;44.602;10.976;2023-08-06T05:52:57;99884.19;;;27.03;49.70
48200;BME280;33990;44.602;10.976;2023-08-06T05:55:27;99895.06;;;27.03;49.57
48200;BME280;33990;44.602;10.976;2023-08-06T05:57:55;99896.94;;;27.02;49.71
48200;BME280;33990;44.602;10.976;2023-08-06T06:00:22;99903.22;;;27.03;49.77
48200;BME280;33990;44.602;10.976;2023-08-06T06:02:50;99905.09;;;27.02;49.80
48200;BME280;33990;44.602;10.976;2023-08-06T06:05:17;99916.81;;;27.03;49.62
48200;BME280;33990;44.602;10.976;2023-08-06T06:07:44;99925.78;;;27.03;49.61
48200;BME280;33990;44.602;10.976;2023-08-06T06:10:12;99928.50;;;27.03;49.77
48200;BME280;33990;44.602;10.976;2023-08-06T06:12:40;99918.69;;;27.02;49.67
48200;BME280;33990;44.602;10.976;2023-08-06T06:15:08;99923.06;;;27.03;49.71
48200;BME280;33990;44.602;10.976;2023-08-06T06:17:35;99923.25;;;27.02;49.95
48200;BME280;33990;44.602;10.976;2023-08-06T06:20:03;99927.84;;;27.01;49.72
48200;BME280;33990;44.602;10.976;2023-08-06T06:22:31;99921.41;;;27.02;49.89
48200;BME280;33990;44.602;10.976;2023-08-06T06:24:59;99922.41;;;27.01;49.82
48200;BME280;33990;44.602;10.976;2023-08-06T06:27:26;99935.16;;;27.01;50.01
48200;BME280;33990;44.602;10.976;2023-08-06T06:29:53;99924.31;;;27.01;49.99
48200;BME280;33990;44.602;10.976;2023-08-06T06:32:21;99940.59;;;27.01;49.76
48200;BME280;33990;44.602;10.976;2023-08-06T06:34:49;99931.63;;;27.00;50.04
48200;BME280;33990;44.602;10.976;2023-08-06T06:37:16;99935.16;;;27.01;49.80
48200;BME280;33990;44.602;10.976;2023-08-06T06:39:43;99947.91;;;27.00;49.64
48200;BME280;33990;44.602;10.976;2023-08-06T06:42:11;99956.06;;;27.00;49.80
48200;BME280;33990;44.602;10.976;2023-08-06T06:44:44;99951.69;;;26.99;50.01
48200;BME280;33990;44.602;10.976;2023-08-06T06:47:11;99958.78;;;27.00;50.08
48200;BME280;33990;44.602;10.976;2023-08-06T06:49:39;99957.94;;;27.00;50.10
48200;BME280;33990;44.602;10.976;2023-08-06T06:52:06;99953.34;;;27.00;49.92
48200;BME280;33990;44.602;10.976;2023-08-06T06:54:33;99951.69;;;26.99;49.90
48200;BME280;33990;44.602;10.976;2023-08-06T06:57:01;99952.72;;;26.98;49.94
48200;BME280;33990;44.602;10.976;2023-08-06T06:59:28;99953.56;;;26.99;49.83
48200;BME280;33990;44.602;10.976;2023-08-06T07:01:55;99942.69;;;26.99;50.16
48200;BME280;33990;44.602;10.976;2023-08-06T07:04:23;99951.69;;;26.99;49.99
48200;BME280;33990;44.602;10.976;2023-08-06T07:06:50;99956.28;;;26.99;49.68
48200;BME280;33990;44.602;10.976;2023-08-06T07:09:19;99959.00;;;26.99;50.10
48200;BME280;33990;44.602;10.976;2023-08-06T07:11:46;99956.28;;;26.99;50.02
48200;BME280;33990;44.602;10.976;2023-08-06T07:14:13;99952.72;;;26.98;50.00
48200;BME280;33990;44.602;10.976;2023-08-06T07:16:42;99952.72;;;26.98;49.75
48200;BME280;33990;44.602;10.976;2023-08-06T07:19:10;99952.72;;;26.98;49.84
48200;BME280;33990;44.602;10.976;2023-08-06T07:21:37;99959.00;;;26.99;49.63
48200;BME280;33990;44.602;10.976;2023-08-06T07:24:05;99957.13;;;26.99;49.79
48200;BME280;33990;44.602;10.976;2023-08-06T07:26:32;99953.56;;;26.99;49.72
48200;BME280;33990;44.602;10.976;2023-08-06T07:28:59;99955.22;;;27.00;49.74
48200;BME280;33990;44.602;10.976;2023-08-06T07:31:27;99955.44;;;26.98;49.87
48200;BME280;33990;44.602;10.976;2023-08-06T07:33:54;99959.00;;;26.99;49.91
48200;BME280;33990;44.602;10.976;2023-08-06T07:36:21;99959.81;;;26.99;49.87
48200;BME280;33990;44.602;10.976;2023-08-06T07:38:49;99962.53;;;26.99;49.88
48200;BME280;33990;44.602;10.976;2023-08-06T07:41:23;99969.88;;;26.99;49.98
48200;BME280;33990;44.602;10.976;2023-08-06T07:43:50;99966.09;;;27.00;49.90
48200;BME280;33990;44.602;10.976;2023-08-06T07:46:17;99968.81;;;27.00;50.01
48200;BME280;33990;44.602;10.976;2023-08-06T07:48:45;99969.88;;;26.99;49.69
48200;BME280;33990;44.602;10.976;2023-08-06T07:51:12;99965.25;;;26.99;49.98
48200;BME280;33990;44.602;10.976;2023-08-06T07:53:40;99970.69;;;26.99;49.87
48200;BME280;33990;44.602;10.976;2023-08-06T07:56:07;99975.28;;;26.99;49.60
48200;BME280;33990;44.602;10.976;2023-08-06T07:58:34;99980.72;;;26.99;49.62
48200;BME280;33990;44.602;10.976;2023-08-06T08:01:02;99987.00;;;26.99;49.62
48200;BME280;33990;44.602;10.976;2023-08-06T08:03:31;99987.00;;;26.99;49.60
48200;BME280;33990;44.602;10.976;2023-08-06T08:05:59;99989.50;;;27.01;49.69
48200;BME280;33990;44.602;10.976;2023-08-06T08:08:26;99985.09;;;27.00;49.38
48200;BME280;33990;44.602;10.976;2023-08-06T08:10:54;99980.50;;;27.00;49.60
48200;BME280;33990;44.602;10.976;2023-08-06T08:13:22;99987.81;;;27.00;49.33
48200;BME280;33990;44.602;10.976;2023-08-06T08:15:50;99974.25;;;27.00;49.47
48200;BME280;33990;44.602;10.976;2023-08-06T08:18:17;99969.66;;;27.00;49.32
48200;BME280;33990;44.602;10.976;2023-08-06T08:20:44;99979.69;;;27.00;49.49
48200;BME280;33990;44.602;10.976;2023-08-06T08:23:12;99976.13;;;26.99;49.32
48200;BME280;33990;44.602;10.976;2023-08-06T08:25:39;99957.94;;;27.00;49.54
48200;BME280;33990;44.602;10.976;2023-08-06T08:28:06;99954.41;;;26.99;49.28
48200;BME280;33990;44.602;10.976;2023-08-06T08:30:34;99961.50;;;27.00;49.36
48200;BME280;33990;44.602;10.976;2023-08-06T08:33:02;99952.50;;;27.00;49.37
48200;BME280;33990;44.602;10.976;2023-08-06T08:35:29;99949.78;;;27.00;49.49
48200;BME280;33990;44.602;10.976;2023-08-06T08:37:56;99950.63;;;27.00;49.32
48200;BME280;33990;44.602;10.976;2023-08-06T08:40:34;99956.91;;;27.01;49.39
48200;BME280;33990;44.602;10.976;2023-08-06T08:43:04;99947.91;;;27.00;49.45
48200;BME280;33990;44.602;10.976;2023-08-06T08:45:34;99956.91;;;27.01;49.34
48200;BME280;33990;44.602;10.976;2023-08-06T08:48:06;99956.91;;;27.01;49.51
48200;BME280;33990;44.602;10.976;2023-08-06T08:50:34;99957.72;;;27.01;49.51
48200;BME280;33990;44.602;10.976;2023-08-06T08:53:01;99955.00;;;27.01;49.57
48200;BME280;33990;44.602;10.976;2023-08-06T08:55:29;99955.00;;;27.01;49.00
48200;BME280;33990;44.602;10.976;2023-08-06T08:57:56;99946.03;;;27.01;49.33
48200;BME280;33990;44.602;10.976;2023-08-06T09:00:24;99946.88;;;27.01;49.36
48200;BME280;33990;44.602;10.976;2023-08-06T09:02:52;99941.44;;;27.01;49.29
48200;BME280;33990;44.602;10.976;2023-08-06T09:05:21;99954.00;;;27.02;49.33
48200;BME280;33990;44.602;10.976;2023-08-06T09:07:51;99946.88;;;27.01;49.24
48200;BME280;33990;44.602;10.976;2023-08-06T09:10:20;99958.56;;;27.02;49.41
48200;BME280;33990;44.602;10.976;2023-08-06T09:12:51;99957.53;;;27.03;49.34
48200;BME280;33990;44.602;10.976;2023-08-06T09:15:20;99962.16;;;27.02;49.38
48200;BME280;33990;44.602;10.976;2023-08-06T09:17:54;99958.56;;;27.02;49.42
48200;BME280;33990;44.602;10.976;2023-08-06T09:20:22;99964.88;;;27.02;49.32
48200;BME280;33990;44.602;10.976;2023-08-06T09:22:52;99970.09;;;27.04;49.13
48200;BME280;33990;44.602;10.976;2023-08-06T09:25:23;99987.44;;;27.03;49.23
48200;BME280;33990;44.602;10.976;2023-08-06T09:27:55;99992.03;;;27.02;49.38
48200;BME280;33990;44.602;10.976;2023-08-06T09:30:39;99986.59;;;27.02;49.43
48200;BME280;33990;44.602;10.976;2023-08-06T09:33:09;99983.88;;;27.02;49.11
48200;BME280;33990;44.602;10.976;2023-08-06T09:35:43;99981.16;;;27.02;49.24
48200;BME280;33990;44.602;10.976;2023-08-06T09:38:10;99981.16;;;27.02;49.30
48200;BME280;33990;44.602;10.976;2023-08-06T09:40:39;99979.47;;;27.01;49.22
48200;BME280;33990;44.602;10.976;2023-08-06T09:43:06;99973.84;;;27.03;49.20
48200;BME280;33990;44.602;10.976;2023-08-06T09:45:36;99974.88;;;27.02;49.08
48200;BME280;33990;44.602;10.976;2023-08-06T09:48:08;99971.13;;;27.03;49.38
48200;BME280;33990;44.602;10.976;2023-08-06T09:50:37;99974.69;;;27.03;49.33
48200;BME280;33990;44.602;10.976;2023-08-06T09:53:06;99967.59;;;27.02;49.42
48200;BME280;33990;44.602;10.976;2023-08-06T09:55:35;99968.41;;;27.03;49.03
48200;BME280;33990;44.602;10.976;2023-08-06T09:58:03;99974.69;;;27.03;49.10
48200;BME280;33990;44.602;10.976;2023-08-06T10:00:31;99971.97;;;27.03;49.46
48200;BME280;33990;44.602;10.976;2023-08-06T10:03:05;99972.78;;;27.04;49.38
48200;BME280;33990;44.602;10.976;2023-08-06T10:05:34;99971.13;;;27.03;49.33
48200;BME280;33990;44.602;10.976;2023-08-06T10:08:03;99967.38;;;27.04;49.31
48200;BME280;33990;44.602;10.976;2023-08-06T10:10:33;99961.09;;;27.03;49.31
48200;BME280;33990;44.602;10.976;2023-08-06T10:13:02;99957.34;;;27.04;49.38
48200;BME280;33990;44.602;10.976;2023-08-06T10:15:31;99961.09;;;27.03;49.25
48200;BME280;33990;44.602;10.976;2023-08-06T10:18:00;99963.81;;;27.03;49.26
48200;BME280;33990;44.602;10.976;2023-08-06T10:20:33;99958.38;;;27.03;49.20
48200;BME280;33990;44.602;10.976;2023-08-06T10:23:02;99965.47;;;27.04;49.33
48200;BME280;33990;44.602;10.976;2023-08-06T10:25:31;99961.94;;;27.04;49.19
48200;BME280;33990;44.602;10.976;2023-08-06T10:27:59;99950.22;;;27.03;49.05
48200;BME280;33990;44.602;10.976;2023-08-06T10:30:27;99960.25;;;27.03;49.15
48200;BME280;33990;44.602;10.976;2023-08-06T10:32:57;99954.00;;;27.02;49.23
48200;BME280;33990;44.602;10.976;2023-08-06T10:37:59;99961.94;;;27.04;49.37
48200;BME280;33990;44.602;10.976;2023-08-06T10:40:31;99966.53;;;27.03;49.01
48200;BME280;33990;44.602;10.976;2023-08-06T10:43:03;99956.72;;;27.02;49.28
48200;BME280;33990;44.602;10.976;2023-08-06T10:45:34;99952.13;;;27.03;49.07
48200;BME280;33990;44.602;10.976;2023-08-06T10:48:01;99950.22;;;27.03;49.18
48200;BME280;33990;44.602;10.976;2023-08-06T10:50:29;99952.13;;;27.03;49.16
48200;BME280;33990;44.602;10.976;2023-08-06T10:53:03;99947.69;;;27.02;48.84
48200;BME280;33990;44.602;10.976;2023-08-06T10:55:31;99942.09;;;27.03;49.03
48200;BME280;33990;44.602;10.976;2023-08-06T10:57:59;99940.41;;;27.02;49.33
48200;BME280;33990;44.602;10.976;2023-08-06T11:00:27;99943.13;;;27.02;48.96
48200;BME280;33990;44.602;10.976;2023-08-06T11:02:54;99939.38;;;27.03;49.03
48200;BME280;33990;44.602;10.976;2023-08-06T11:05:22;99948.56;;;27.02;49.16
48200;BME280;33990;44.602;10.976;2023-08-06T11:07:49;99934.97;;;27.02;48.87
48200;BME280;33990;44.602;10.976;2023-08-06T11:10:18;99936.84;;;27.02;48.74
48200;BME280;33990;44.602;10.976;2023-08-06T11:12:45;99944.97;;;27.02;48.83
48200;BME280;33990;44.602;10.976;2023-08-06T11:15:13;99945.84;;;27.02;48.49
48200;BME280;33990;44.602;10.976;2023-08-06T11:17:41;99940.41;;;27.02;48.65
48200;BME280;33990;44.602;10.976;2023-08-06T11:20:09;99939.56;;;27.02;48.66
48200;BME280;33990;44.602;10.976;2023-08-06T11:22:37;99941.44;;;27.01;48.43
48200;BME280;33990;44.602;10.976;2023-08-06T11:25:06;99941.25;;;27.03;48.76
48200;BME280;33990;44.602;10.976;2023-08-06T11:27:34;99936.66;;;27.03;48.17
48200;BME280;33990;44.602;10.976;2023-08-06T11:30:01;99936.00;;;27.01;47.84
48200;BME280;33990;44.602;10.976;2023-08-06T11:32:29;99930.56;;;27.01;47.43
48200;BME280;33990;44.602;10.976;2023-08-06T11:34:56;99936.00;;;27.01;46.98
48200;BME280;33990;44.602;10.976;2023-08-06T11:37:24;99932.25;;;27.02;47.20
48200;BME280;33990;44.602;10.976;2023-08-06T11:39:52;99936.84;;;27.02;46.60
48200;BME280;33990;44.602;10.976;2023-08-06T11:42:20;99936.00;;;27.01;46.39
48200;BME280;33990;44.602;10.976;2023-08-06T11:44:47;99936.84;;;27.02;46.48
48200;BME280;33990;44.602;10.976;2023-08-06T11:47:16;99936.00;;;27.01;46.14
48200;BME280;33990;44.602;10.976;2023-08-06T11:52:25;99927.00;;;27.01;45.92
48200;BME280;33990;44.602;10.976;2023-08-06T11:57:34;99911.78;;;27.00;45.44
48200;BME280;33990;44.602;10.976;2023-08-06T12:00:04;99922.41;;;27.01;45.41
48200;BME280;33990;44.602;10.976;2023-08-06T12:02:39;99913.44;;;27.01;45.10
48200;BME280;33990;44.602;10.976;2023-08-06T12:05:18;99922.41;;;27.01;45.25
48200;BME280;33990;44.602;10.976;2023-08-06T12:07:51;99916.16;;;27.01;45.14
48200;BME280;33990;44.602;10.976;2023-08-06T12:10:19;99912.59;;;27.00;45.15
48200;BME280;33990;44.602;10.976;2023-08-06T12:12:48;99925.97;;;27.02;45.31
48200;BME280;33990;44.602;10.976;2023-08-06T12:15:15;99907.16;;;27.00;45.11
48200;BME280;33990;44.602;10.976;2023-08-06T12:17:43;99912.59;;;27.00;45.28
48200;BME280;33990;44.602;10.976;2023-08-06T12:20:11;99909.88;;;27.00;44.96
48200;BME280;33990;44.602;10.976;2023-08-06T12:22:39;99908.22;;;26.99;44.95
48200;BME280;33990;44.602;10.976;2023-08-06T12:25:09;99910.94;;;26.99;44.60
48200;BME280;33990;44.602;10.976;2023-08-06T12:27:42;99905.50;;;26.99;44.51
48200;BME280;33990;44.602;10.976;2023-08-06T12:30:11;99915.31;;;27.00;44.36
48200;BME280;33990;44.602;10.976;2023-08-06T12:32:39;99902.78;;;26.99;44.06
48200;BME280;33990;44.602;10.976;2023-08-06T12:35:07;99896.53;;;26.99;44.02
48200;BME280;33990;44.602;10.976;2023-08-06T12:37:35;99911.78;;;27.00;43.90
48200;BME280;33990;44.602;10.976;2023-08-06T12:40:06;99905.50;;;26.99;43.42
48200;BME280;33990;44.602;10.976;2023-08-06T12:42:53;99900.06;;;26.99;43.66
48200;BME280;33990;44.602;10.976;2023-08-06T12:45:22;99891.91;;;26.99;43.51
48200;BME280;33990;44.602;10.976;2023-08-06T12:47:49;99901.13;;;26.98;43.44
48200;BME280;33990;44.602;10.976;2023-08-06T12:50:17;99902.97;;;26.98;43.55
48200;BME280;33990;44.602;10.976;2023-08-06T12:52:45;99911.78;;;27.00;43.77
48200;BME280;33990;44.602;10.976;2023-08-06T12:55:12;99910.09;;;26.99;43.93
48200;BME280;33990;44.602;10.976;2023-08-06T12:57:40;99906.56;;;26.98;43.58
48200;BME280;33990;44.602;10.976;2023-08-06T13:00:25;99909.28;;;26.98;43.14
48200;BME280;33990;44.602;10.976;2023-08-06T13:02:53;99909.28;;;26.98;43.00
48200;BME280;33990;44.602;10.976;2023-08-06T13:05:20;99912.00;;;26.98;43.09
48200;BME280;33990;44.602;10.976;2023-08-06T13:07:48;99908.41;;;26.98;43.39
48200;BME280;33990;44.602;10.976;2023-08-06T13:10:15;99909.28;;;26.98;43.85
48200;BME280;33990;44.602;10.976;2023-08-06T13:12:43;99914.69;;;26.98;43.69
48200;BME280;33990;44.602;10.976;2023-08-06T13:15:11;99902.13;;;26.97;43.76